New Raymer, CO (80742)

12:06 PM MDT on July 25, 2016 (GMT -0600)
Fort Morgan | | Change Station

Elev 4570 ft 40.33 °N, 103.80 °W | Updated 11 minutes ago

Clear
Clear
82 °F
Feels Like 83 °F
N
14
Wind Variable Wind from ESE
Gusts 20 mph

Today
High -- | Low -- °F
--% Chance of Precip.
Yesterday
High -- | Low -- °F
Precip. -- in
Pressure 30.17 in
Visibility 10.0 miles
Clouds Clear
Heat Index 83 °F
Dew Point 60 °F
Humidity 46%
Rainfall 0.00 in
Snow Depth Not available.
5:46 AM 8:17 PM
Waning Gibbous, 64% visible
METAR KFMM 251755Z AUTO 11012G17KT 10SM CLR 28/15 A3017 RMK AO2 T02800153 10280 20135
Pressure 30.17 in
Visibility 10.0 miles
Clouds Clear
Heat Index 83 °F
Dew Point 60 °F
Humidity 46%
Rainfall 0.00 in
Snow Depth Not available.
5:46 AM 8:17 PM
Waning Gibbous, 64% visible
METAR KFMM 251755Z AUTO 11012G17KT 10SM CLR 28/15 A3017 RMK AO2 T02800153 10280 20135

10-Day Weather Forecast

Almanac

Astronomy

Jul. 25, 2016 Rise Set
Actual Time
Civil Twilight
Nautical Twilight
Astronomical Twilight
Moon
Length of Visible Light
Length of Day
Tomorrow will be .
, % of the Moon is Illuminated

Today's Extremes

State Highs State Lows

Community

WunderPhotos

Upload Photos

1,927,364 photos uploaded!

WunderBlog® & News

Nearby

Air Quality

  Air Quality AQ Index Pollutant
Not available.

Snow Depth

Station Depth Elevation

Earthquake Activity

City Distance Mag. Time & Date
Minimum magnitude displayed is 2.5.

Coastal Water Temperatures

Place Temperature

Stations

Nearby Weather Stations

Station Location Temp. Windchill Dew Point Humidity Wind Precip. Elev Updated Type
                   

Watches & Warnings

There are currently no watches in effect.